Apple Valley, North Dakota
Current Conditions -  °F | °C
As of 2:52 PM on Friday 24 Oct 2014 (Local Time) from KBIS Reporting Station
Clear Clear  
Wind Chill: 73°   Ceiling: Unl
Heat Index: 73°   Visibility: 10mi
Dew Point: 36°   Wind: 18mph
Humidity: 26%   Direction: 290°WNW
Pressure: 29.89"   Gusts: 24mph
Location:  46.8954°N, 100.519°W
Report Text: KBIS 241952Z 29016G21KT 10SM CLR 23/02 A2989 RMK AO2 SLP123 T02280022
Loading
Personal Weather Stations






























Interactive Weather Map New forecast layout! Learn more

10-Day Weather Forecast

Advertisements
Track Severe Weather on mobile